sensor_id;sensor_type;location;lat;lon;timestamp;temperature;humidity
15143;DHT22;7672;50.834;6.286;2024-02-26T00:00:23;9.00;99.90
15143;DHT22;7672;50.834;6.286;2024-02-26T00:03:13;8.50;99.90
15143;DHT22;7672;50.834;6.286;2024-02-26T00:05:46;8.70;99.90
15143;DHT22;7672;50.834;6.286;2024-02-26T00:08:15;8.50;99.90
15143;DHT22;7672;50.834;6.286;2024-02-26T00:10:42;9.00;99.90
15143;DHT22;7672;50.834;6.286;2024-02-26T00:16:49;8.40;99.90
15143;DHT22;7672;50.834;6.286;2024-02-26T00:19:16;8.60;99.90
15143;DHT22;7672;50.834;6.286;2024-02-26T00:21:43;8.60;99.90
15143;DHT22;7672;50.834;6.286;2024-02-26T00:24:10;8.60;99.90
15143;DHT22;7672;50.834;6.286;2024-02-26T00:26:38;8.60;99.90
15143;DHT22;7672;50.834;6.286;2024-02-26T00:29:05;8.60;99.90
15143;DHT22;7672;50.834;6.286;2024-02-26T00:31:32;8.50;99.90
15143;DHT22;7672;50.834;6.286;2024-02-26T00:33:59;8.60;99.90
15143;DHT22;7672;50.834;6.286;2024-02-26T00:36:27;8.50;99.90
15143;DHT22;7672;50.834;6.286;2024-02-26T00:38:58;8.50;99.90
15143;DHT22;7672;50.834;6.286;2024-02-26T00:41:47;8.60;99.90
15143;DHT22;7672;50.834;6.286;2024-02-26T00:44:16;8.50;99.90
15143;DHT22;7672;50.834;6.286;2024-02-26T00:46:44;8.50;99.90
15143;DHT22;7672;50.834;6.286;2024-02-26T00:49:11;8.50;99.90
15143;DHT22;7672;50.834;6.286;2024-02-26T00:51:39;8.80;99.90
15143;DHT22;7672;50.834;6.286;2024-02-26T00:54:07;8.80;99.90
15143;DHT22;7672;50.834;6.286;2024-02-26T00:56:35;8.40;99.90
15143;DHT22;7672;50.834;6.286;2024-02-26T00:59:06;8.40;99.90
15143;DHT22;7672;50.834;6.286;2024-02-26T01:01:37;8.40;99.90
15143;DHT22;7672;50.834;6.286;2024-02-26T01:04:34;8.40;99.90
15143;DHT22;7672;50.834;6.286;2024-02-26T01:07:33;8.40;99.90
15143;DHT22;7672;50.834;6.286;2024-02-26T01:10:13;8.40;99.90
15143;DHT22;7672;50.834;6.286;2024-02-26T01:12:46;8.40;99.90
15143;DHT22;7672;50.834;6.286;2024-02-26T01:16:22;8.40;99.90
15143;DHT22;7672;50.834;6.286;2024-02-26T01:21:18;8.40;99.90
15143;DHT22;7672;50.834;6.286;2024-02-26T01:24:40;8.40;99.90
15143;DHT22;7672;50.834;6.286;2024-02-26T01:27:13;8.30;99.90
15143;DHT22;7672;50.834;6.286;2024-02-26T01:29:45;8.40;99.90
15143;DHT22;7672;50.834;6.286;2024-02-26T01:32:33;8.30;99.90
15143;DHT22;7672;50.834;6.286;2024-02-26T01:35:11;8.20;99.90
15143;DHT22;7672;50.834;6.286;2024-02-26T01:37:42;8.30;99.90
15143;DHT22;7672;50.834;6.286;2024-02-26T01:41:13;8.20;99.90
15143;DHT22;7672;50.834;6.286;2024-02-26T01:48:45;8.20;99.90
15143;DHT22;7672;50.834;6.286;2024-02-26T01:51:22;8.20;99.90
15143;DHT22;7672;50.834;6.286;2024-02-26T01:53:57;8.20;99.90
15143;DHT22;7672;50.834;6.286;2024-02-26T01:56:32;8.20;99.90
15143;DHT22;7672;50.834;6.286;2024-02-26T01:59:03;8.20;99.90
15143;DHT22;7672;50.834;6.286;2024-02-26T02:01:44;8.20;99.90
15143;DHT22;7672;50.834;6.286;2024-02-26T02:04:19;8.20;99.90
15143;DHT22;7672;50.834;6.286;2024-02-26T02:07:30;8.20;99.90
15143;DHT22;7672;50.834;6.286;2024-02-26T02:11:29;8.20;99.90
15143;DHT22;7672;50.834;6.286;2024-02-26T02:14:10;8.20;99.90
15143;DHT22;7672;50.834;6.286;2024-02-26T02:16:41;8.20;99.90
15143;DHT22;7672;50.834;6.286;2024-02-26T02:19:46;8.20;99.90
15143;DHT22;7672;50.834;6.286;2024-02-26T02:23:31;8.20;99.90
15143;DHT22;7672;50.834;6.286;2024-02-26T02:27:26;8.20;99.90
15143;DHT22;7672;50.834;6.286;2024-02-26T02:31:55;8.10;99.90
15143;DHT22;7672;50.834;6.286;2024-02-26T02:35:59;8.10;99.90
15143;DHT22;7672;50.834;6.286;2024-02-26T02:39:15;8.20;99.90
15143;DHT22;7672;50.834;6.286;2024-02-26T02:42:11;8.40;99.90
15143;DHT22;7672;50.834;6.286;2024-02-26T02:45:48;8.10;99.90
15143;DHT22;7672;50.834;6.286;2024-02-26T02:48:33;8.60;99.90
15143;DHT22;7672;50.834;6.286;2024-02-26T02:51:44;8.10;99.90
15143;DHT22;7672;50.834;6.286;2024-02-26T02:54:29;8.10;99.90
15143;DHT22;7672;50.834;6.286;2024-02-26T02:57:05;8.10;99.90
15143;DHT22;7672;50.834;6.286;2024-02-26T03:00:19;8.10;99.90
15143;DHT22;7672;50.834;6.286;2024-02-26T03:02:56;8.20;99.90
15143;DHT22;7672;50.834;6.286;2024-02-26T03:05:32;8.10;99.90
15143;DHT22;7672;50.834;6.286;2024-02-26T03:08:05;8.20;99.90
15143;DHT22;7672;50.834;6.286;2024-02-26T03:10:59;8.10;99.90
15143;DHT22;7672;50.834;6.286;2024-02-26T03:13:39;8.20;99.90
15143;DHT22;7672;50.834;6.286;2024-02-26T03:16:16;8.10;99.90
15143;DHT22;7672;50.834;6.286;2024-02-26T03:18:55;8.20;99.90
15143;DHT22;7672;50.834;6.286;2024-02-26T03:21:36;8.10;99.90
15143;DHT22;7672;50.834;6.286;2024-02-26T03:24:29;8.40;99.90
15143;DHT22;7672;50.834;6.286;2024-02-26T03:28:05;8.10;99.90
15143;DHT22;7672;50.834;6.286;2024-02-26T03:36:39;7.90;99.90
15143;DHT22;7672;50.834;6.286;2024-02-26T03:40:18;8.10;99.90
15143;DHT22;7672;50.834;6.286;2024-02-26T03:44:42;8.10;99.90
15143;DHT22;7672;50.834;6.286;2024-02-26T03:48:46;8.10;99.90
15143;DHT22;7672;50.834;6.286;2024-02-26T03:53:04;8.10;99.90
15143;DHT22;7672;50.834;6.286;2024-02-26T03:56:54;8.10;99.90
15143;DHT22;7672;50.834;6.286;2024-02-26T04:01:12;8.00;99.90
15143;DHT22;7672;50.834;6.286;2024-02-26T04:04:35;8.00;99.90
15143;DHT22;7672;50.834;6.286;2024-02-26T04:12:54;8.10;99.90
15143;DHT22;7672;50.834;6.286;2024-02-26T04:17:40;8.00;99.90
15143;DHT22;7672;50.834;6.286;2024-02-26T04:22:18;8.00;99.90
15143;DHT22;7672;50.834;6.286;2024-02-26T04:26:47;8.00;99.90
15143;DHT22;7672;50.834;6.286;2024-02-26T04:31:39;8.40;99.90
15143;DHT22;7672;50.834;6.286;2024-02-26T04:36:14;8.00;99.90
15143;DHT22;7672;50.834;6.286;2024-02-26T04:40:04;8.00;99.90
15143;DHT22;7672;50.834;6.286;2024-02-26T04:43:51;8.00;99.90
15143;DHT22;7672;50.834;6.286;2024-02-26T04:46:47;8.40;99.90
15143;DHT22;7672;50.834;6.286;2024-02-26T04:49:35;8.00;99.90
15143;DHT22;7672;50.834;6.286;2024-02-26T04:52:17;8.00;99.90
15143;DHT22;7672;50.834;6.286;2024-02-26T04:55:00;7.90;99.90
15143;DHT22;7672;50.834;6.286;2024-02-26T04:57:42;8.00;99.90
15143;DHT22;7672;50.834;6.286;2024-02-26T05:00:23;7.90;99.90
15143;DHT22;7672;50.834;6.286;2024-02-26T05:03:02;7.90;99.90
15143;DHT22;7672;50.834;6.286;2024-02-26T05:05:41;7.90;99.90
15143;DHT22;7672;50.834;6.286;2024-02-26T05:08:22;7.90;99.90
15143;DHT22;7672;50.834;6.286;2024-02-26T05:11:09;8.20;99.90
15143;DHT22;7672;50.834;6.286;2024-02-26T05:15:16;8.40;99.90
15143;DHT22;7672;50.834;6.286;2024-02-26T05:18:50;7.90;99.90
15143;DHT22;7672;50.834;6.286;2024-02-26T05:22:47;7.90;99.90
15143;DHT22;7672;50.834;6.286;2024-02-26T05:25:46;8.30;99.90
15143;DHT22;7672;50.834;6.286;2024-02-26T05:28:25;7.80;99.90
15143;DHT22;7672;50.834;6.286;2024-02-26T05:30:56;7.80;99.90
15143;DHT22;7672;50.834;6.286;2024-02-26T05:33:27;8.00;99.90
15143;DHT22;7672;50.834;6.286;2024-02-26T05:35:55;7.80;99.90
15143;DHT22;7672;50.834;6.286;2024-02-26T05:38:34;7.80;99.90
15143;DHT22;7672;50.834;6.286;2024-02-26T05:41:05;7.90;99.90
15143;DHT22;7672;50.834;6.286;2024-02-26T05:44:22;7.50;99.90
15143;DHT22;7672;50.834;6.286;2024-02-26T05:47:07;7.80;99.90
15143;DHT22;7672;50.834;6.286;2024-02-26T05:49:45;7.80;99.90
15143;DHT22;7672;50.834;6.286;2024-02-26T05:52:25;7.80;99.90
15143;DHT22;7672;50.834;6.286;2024-02-26T05:55:04;7.80;99.90
15143;DHT22;7672;50.834;6.286;2024-02-26T05:57:38;7.60;99.90
15143;DHT22;7672;50.834;6.286;2024-02-26T06:00:27;7.80;99.90
15143;DHT22;7672;50.834;6.286;2024-02-26T06:03:00;8.20;99.90
15143;DHT22;7672;50.834;6.286;2024-02-26T06:05:38;7.90;99.90
15143;DHT22;7672;50.834;6.286;2024-02-26T06:08:07;7.80;99.90
15143;DHT22;7672;50.834;6.286;2024-02-26T06:10:40;7.90;99.90
15143;DHT22;7672;50.834;6.286;2024-02-26T06:13:12;8.00;99.90
15143;DHT22;7672;50.834;6.286;2024-02-26T06:15:49;7.90;99.90
15143;DHT22;7672;50.834;6.286;2024-02-26T06:18:24;7.90;99.90
15143;DHT22;7672;50.834;6.286;2024-02-26T06:20:54;7.90;99.90
15143;DHT22;7672;50.834;6.286;2024-02-26T06:23:35;8.30;99.90
15143;DHT22;7672;50.834;6.286;2024-02-26T06:26:16;7.90;99.90
15143;DHT22;7672;50.834;6.286;2024-02-26T06:28:51;7.90;99.90
15143;DHT22;7672;50.834;6.286;2024-02-26T06:31:19;7.90;99.90
15143;DHT22;7672;50.834;6.286;2024-02-26T06:33:47;8.00;99.90
15143;DHT22;7672;50.834;6.286;2024-02-26T06:36:18;7.90;99.90
15143;DHT22;7672;50.834;6.286;2024-02-26T06:38:45;7.90;99.90
15143;DHT22;7672;50.834;6.286;2024-02-26T06:41:12;7.90;99.90
15143;DHT22;7672;50.834;6.286;2024-02-26T06:43:39;7.90;99.90
15143;DHT22;7672;50.834;6.286;2024-02-26T06:46:06;7.90;99.90
15143;DHT22;7672;50.834;6.286;2024-02-26T06:48:34;7.90;99.90
15143;DHT22;7672;50.834;6.286;2024-02-26T06:51:01;7.90;99.90
15143;DHT22;7672;50.834;6.286;2024-02-26T06:53:28;7.90;99.90
15143;DHT22;7672;50.834;6.286;2024-02-26T06:55:55;8.00;99.90
15143;DHT22;7672;50.834;6.286;2024-02-26T06:58:22;8.00;99.90
15143;DHT22;7672;50.834;6.286;2024-02-26T07:00:50;8.00;99.90
15143;DHT22;7672;50.834;6.286;2024-02-26T07:03:17;8.00;99.90
15143;DHT22;7672;50.834;6.286;2024-02-26T07:05:44;8.00;99.90
15143;DHT22;7672;50.834;6.286;2024-02-26T07:08:12;8.00;99.90
15143;DHT22;7672;50.834;6.286;2024-02-26T07:14:15;8.00;99.90
15143;DHT22;7672;50.834;6.286;2024-02-26T07:16:42;8.00;99.90
15143;DHT22;7672;50.834;6.286;2024-02-26T07:19:09;8.00;99.90
15143;DHT22;7672;50.834;6.286;2024-02-26T07:21:36;8.10;99.90
15143;DHT22;7672;50.834;6.286;2024-02-26T07:24:03;8.10;99.90
15143;DHT22;7672;50.834;6.286;2024-02-26T07:26:31;8.10;99.90
15143;DHT22;7672;50.834;6.286;2024-02-26T07:28:58;8.10;99.90
15143;DHT22;7672;50.834;6.286;2024-02-26T07:31:25;8.20;99.90
15143;DHT22;7672;50.834;6.286;2024-02-26T07:33:52;8.10;99.90
15143;DHT22;7672;50.834;6.286;2024-02-26T07:36:20;8.10;99.90
15143;DHT22;7672;50.834;6.286;2024-02-26T07:38:47;8.10;99.90
15143;DHT22;7672;50.834;6.286;2024-02-26T07:41:16;8.10;99.90
15143;DHT22;7672;50.834;6.286;2024-02-26T07:43:43;8.00;99.90
15143;DHT22;7672;50.834;6.286;2024-02-26T07:46:12;8.00;99.90
15143;DHT22;7672;50.834;6.286;2024-02-26T07:48:39;8.00;99.90
15143;DHT22;7672;50.834;6.286;2024-02-26T07:51:08;8.00;99.90
15143;DHT22;7672;50.834;6.286;2024-02-26T07:53:35;8.00;99.90
15143;DHT22;7672;50.834;6.286;2024-02-26T07:56:02;8.00;99.90
15143;DHT22;7672;50.834;6.286;2024-02-26T07:58:30;8.00;99.90
15143;DHT22;7672;50.834;6.286;2024-02-26T08:00:56;8.00;99.90
15143;DHT22;7672;50.834;6.286;2024-02-26T08:03:23;8.00;99.90
15143;DHT22;7672;50.834;6.286;2024-02-26T08:05:51;8.00;99.90
15143;DHT22;7672;50.834;6.286;2024-02-26T08:08:18;8.00;99.90
15143;DHT22;7672;50.834;6.286;2024-02-26T08:10:45;8.00;99.90
15143;DHT22;7672;50.834;6.286;2024-02-26T08:13:12;8.00;99.90
15143;DHT22;7672;50.834;6.286;2024-02-26T08:15:39;8.00;99.90
15143;DHT22;7672;50.834;6.286;2024-02-26T08:18:06;8.00;99.90
15143;DHT22;7672;50.834;6.286;2024-02-26T08:20:33;8.00;99.90
15143;DHT22;7672;50.834;6.286;2024-02-26T08:23:00;8.00;99.90
15143;DHT22;7672;50.834;6.286;2024-02-26T08:25:27;8.00;99.90
15143;DHT22;7672;50.834;6.286;2024-02-26T08:27:55;8.00;99.90
15143;DHT22;7672;50.834;6.286;2024-02-26T08:30:22;8.00;99.90
15143;DHT22;7672;50.834;6.286;2024-02-26T08:32:49;8.10;99.90
15143;DHT22;7672;50.834;6.286;2024-02-26T08:35:19;8.00;99.90
15143;DHT22;7672;50.834;6.286;2024-02-26T08:37:47;8.00;99.90
15143;DHT22;7672;50.834;6.286;2024-02-26T08:40:15;8.10;99.90
15143;DHT22;7672;50.834;6.286;2024-02-26T08:42:42;8.10;99.90
15143;DHT22;7672;50.834;6.286;2024-02-26T08:45:09;8.10;99.90
15143;DHT22;7672;50.834;6.286;2024-02-26T08:47:37;8.10;99.90
15143;DHT22;7672;50.834;6.286;2024-02-26T08:50:05;8.10;99.90
15143;DHT22;7672;50.834;6.286;2024-02-26T08:52:33;8.10;99.90
15143;DHT22;7672;50.834;6.286;2024-02-26T08:55:00;8.10;99.90
15143;DHT22;7672;50.834;6.286;2024-02-26T08:57:27;8.10;99.90
15143;DHT22;7672;50.834;6.286;2024-02-26T08:59:54;8.10;99.90
15143;DHT22;7672;50.834;6.286;2024-02-26T09:02:21;8.10;99.90
15143;DHT22;7672;50.834;6.286;2024-02-26T09:04:48;8.10;99.90
15143;DHT22;7672;50.834;6.286;2024-02-26T09:07:17;8.10;99.90
15143;DHT22;7672;50.834;6.286;2024-02-26T09:09:44;8.10;99.90
15143;DHT22;7672;50.834;6.286;2024-02-26T09:12:11;8.10;99.90
15143;DHT22;7672;50.834;6.286;2024-02-26T09:14:38;8.10;99.90
15143;DHT22;7672;50.834;6.286;2024-02-26T09:17:05;8.10;99.90
15143;DHT22;7672;50.834;6.286;2024-02-26T09:19:34;8.10;99.90
15143;DHT22;7672;50.834;6.286;2024-02-26T09:22:01;8.10;99.90
15143;DHT22;7672;50.834;6.286;2024-02-26T09:24:28;8.10;99.90
15143;DHT22;7672;50.834;6.286;2024-02-26T09:26:56;8.10;99.90
15143;DHT22;7672;50.834;6.286;2024-02-26T09:29:23;8.10;99.90
15143;DHT22;7672;50.834;6.286;2024-02-26T09:31:50;8.10;99.90
15143;DHT22;7672;50.834;6.286;2024-02-26T09:34:16;8.10;99.90
15143;DHT22;7672;50.834;6.286;2024-02-26T09:36:44;8.10;99.90
15143;DHT22;7672;50.834;6.286;2024-02-26T09:39:11;8.10;99.90
15143;DHT22;7672;50.834;6.286;2024-02-26T09:41:39;8.10;99.90
15143;DHT22;7672;50.834;6.286;2024-02-26T09:44:06;8.20;99.90
15143;DHT22;7672;50.834;6.286;2024-02-26T09:46:34;8.20;99.90
15143;DHT22;7672;50.834;6.286;2024-02-26T09:49:01;8.20;99.90
15143;DHT22;7672;50.834;6.286;2024-02-26T09:51:29;8.20;99.90
15143;DHT22;7672;50.834;6.286;2024-02-26T09:53:59;8.30;99.90
15143;DHT22;7672;50.834;6.286;2024-02-26T09:56:30;8.30;99.90
15143;DHT22;7672;50.834;6.286;2024-02-26T09:58:59;8.30;99.90
15143;DHT22;7672;50.834;6.286;2024-02-26T10:01:26;8.30;99.90
15143;DHT22;7672;50.834;6.286;2024-02-26T10:03:56;8.30;99.90
15143;DHT22;7672;50.834;6.286;2024-02-26T10:06:26;8.40;99.90
15143;DHT22;7672;50.834;6.286;2024-02-26T10:08:54;8.40;99.90
15143;DHT22;7672;50.834;6.286;2024-02-26T10:11:25;8.40;99.90
15143;DHT22;7672;50.834;6.286;2024-02-26T10:13:54;8.40;99.90
15143;DHT22;7672;50.834;6.286;2024-02-26T10:16:21;8.40;99.90
15143;DHT22;7672;50.834;6.286;2024-02-26T10:18:49;8.50;99.90
15143;DHT22;7672;50.834;6.286;2024-02-26T10:21:25;8.50;99.90
15143;DHT22;7672;50.834;6.286;2024-02-26T10:23:53;8.50;99.90
15143;DHT22;7672;50.834;6.286;2024-02-26T10:26:21;8.50;99.90
15143;DHT22;7672;50.834;6.286;2024-02-26T10:28:49;8.60;99.90
15143;DHT22;7672;50.834;6.286;2024-02-26T10:31:21;8.60;99.90
15143;DHT22;7672;50.834;6.286;2024-02-26T10:33:48;8.60;99.90
15143;DHT22;7672;50.834;6.286;2024-02-26T10:36:16;8.60;99.90
15143;DHT22;7672;50.834;6.286;2024-02-26T10:38:43;8.60;99.90
15143;DHT22;7672;50.834;6.286;2024-02-26T10:41:13;8.60;99.90
15143;DHT22;7672;50.834;6.286;2024-02-26T10:43:43;8.60;99.90
15143;DHT22;7672;50.834;6.286;2024-02-26T10:46:11;8.60;99.90
15143;DHT22;7672;50.834;6.286;2024-02-26T10:48:38;8.60;99.90
15143;DHT22;7672;50.834;6.286;2024-02-26T10:51:06;8.60;99.90
15143;DHT22;7672;50.834;6.286;2024-02-26T10:53:38;8.60;99.90
15143;DHT22;7672;50.834;6.286;2024-02-26T10:56:08;8.60;99.90
15143;DHT22;7672;50.834;6.286;2024-02-26T10:58:38;8.60;99.90
15143;DHT22;7672;50.834;6.286;2024-02-26T11:01:06;8.60;99.90
15143;DHT22;7672;50.834;6.286;2024-02-26T11:03:35;8.60;99.90
15143;DHT22;7672;50.834;6.286;2024-02-26T11:06:04;8.70;99.90
15143;DHT22;7672;50.834;6.286;2024-02-26T11:08:32;8.70;99.90
15143;DHT22;7672;50.834;6.286;2024-02-26T11:10:59;8.70;99.90
15143;DHT22;7672;50.834;6.286;2024-02-26T11:13:28;8.70;99.90
15143;DHT22;7672;50.834;6.286;2024-02-26T11:16:01;8.70;99.90
15143;DHT22;7672;50.834;6.286;2024-02-26T11:18:30;8.80;99.90
15143;DHT22;7672;50.834;6.286;2024-02-26T11:20:59;8.80;99.90
15143;DHT22;7672;50.834;6.286;2024-02-26T11:23:28;8.80;99.90
15143;DHT22;7672;50.834;6.286;2024-02-26T11:25:56;8.80;99.90
15143;DHT22;7672;50.834;6.286;2024-02-26T11:28:27;8.80;99.90
15143;DHT22;7672;50.834;6.286;2024-02-26T11:30:55;8.80;99.90
15143;DHT22;7672;50.834;6.286;2024-02-26T11:33:26;8.80;99.90
15143;DHT22;7672;50.834;6.286;2024-02-26T11:35:55;8.80;99.90
15143;DHT22;7672;50.834;6.286;2024-02-26T11:38:24;8.80;99.90
15143;DHT22;7672;50.834;6.286;2024-02-26T11:40:53;8.80;99.90
15143;DHT22;7672;50.834;6.286;2024-02-26T11:43:50;8.80;99.90
15143;DHT22;7672;50.834;6.286;2024-02-26T11:46:32;8.80;99.90
15143;DHT22;7672;50.834;6.286;2024-02-26T11:51:52;8.80;99.90
15143;DHT22;7672;50.834;6.286;2024-02-26T11:54:43;8.80;99.90
15143;DHT22;7672;50.834;6.286;2024-02-26T11:57:39;8.90;99.90
15143;DHT22;7672;50.834;6.286;2024-02-26T12:05:36;8.90;99.90
15143;DHT22;7672;50.834;6.286;2024-02-26T12:08:07;8.90;99.90
15143;DHT22;7672;50.834;6.286;2024-02-26T12:10:39;8.90;99.90
15143;DHT22;7672;50.834;6.286;2024-02-26T12:13:10;8.90;99.90
15143;DHT22;7672;50.834;6.286;2024-02-26T12:15:55;8.90;99.90
15143;DHT22;7672;50.834;6.286;2024-02-26T12:18:24;8.90;99.90
15143;DHT22;7672;50.834;6.286;2024-02-26T12:20:58;8.90;99.90
15143;DHT22;7672;50.834;6.286;2024-02-26T12:23:28;8.90;99.90
15143;DHT22;7672;50.834;6.286;2024-02-26T12:26:01;8.90;99.90
15143;DHT22;7672;50.834;6.286;2024-02-26T12:28:33;8.90;99.90
15143;DHT22;7672;50.834;6.286;2024-02-26T12:31:00;8.90;99.90
15143;DHT22;7672;50.834;6.286;2024-02-26T12:33:28;9.00;99.90
15143;DHT22;7672;50.834;6.286;2024-02-26T12:35:57;8.90;99.90
15143;DHT22;7672;50.834;6.286;2024-02-26T12:38:26;8.90;99.90
15143;DHT22;7672;50.834;6.286;2024-02-26T12:40:54;8.90;99.90
15143;DHT22;7672;50.834;6.286;2024-02-26T12:43:21;8.90;99.90
15143;DHT22;7672;50.834;6.286;2024-02-26T12:45:48;8.90;99.90
15143;DHT22;7672;50.834;6.286;2024-02-26T12:48:15;9.00;99.90
15143;DHT22;7672;50.834;6.286;2024-02-26T12:50:46;9.00;99.90
15143;DHT22;7672;50.834;6.286;2024-02-26T12:53:17;9.00;99.90
15143;DHT22;7672;50.834;6.286;2024-02-26T12:55:44;9.00;99.90
15143;DHT22;7672;50.834;6.286;2024-02-26T12:58:12;9.00;99.90
15143;DHT22;7672;50.834;6.286;2024-02-26T13:00:40;9.00;99.90
15143;DHT22;7672;50.834;6.286;2024-02-26T13:03:07;9.00;99.90
15143;DHT22;7672;50.834;6.286;2024-02-26T13:05:36;9.00;99.90
15143;DHT22;7672;50.834;6.286;2024-02-26T13:08:03;9.00;99.90
15143;DHT22;7672;50.834;6.286;2024-02-26T13:10:35;8.90;99.90
15143;DHT22;7672;50.834;6.286;2024-02-26T13:13:03;8.90;99.90
15143;DHT22;7672;50.834;6.286;2024-02-26T13:15:30;8.90;99.90
15143;DHT22;7672;50.834;6.286;2024-02-26T13:18:12;8.90;99.90
15143;DHT22;7672;50.834;6.286;2024-02-26T13:20:41;8.80;99.90
15143;DHT22;7672;50.834;6.286;2024-02-26T13:23:12;8.80;99.90
15143;DHT22;7672;50.834;6.286;2024-02-26T13:25:40;8.80;99.90
15143;DHT22;7672;50.834;6.286;2024-02-26T13:28:16;8.80;99.90
15143;DHT22;7672;50.834;6.286;2024-02-26T13:30:54;8.80;99.90
15143;DHT22;7672;50.834;6.286;2024-02-26T13:33:28;8.80;99.90
15143;DHT22;7672;50.834;6.286;2024-02-26T13:35:57;8.80;99.90
15143;DHT22;7672;50.834;6.286;2024-02-26T13:38:26;8.80;99.90
15143;DHT22;7672;50.834;6.286;2024-02-26T13:40:55;8.80;99.90
15143;DHT22;7672;50.834;6.286;2024-02-26T13:43:22;8.80;99.90
15143;DHT22;7672;50.834;6.286;2024-02-26T13:45:49;8.80;99.90
15143;DHT22;7672;50.834;6.286;2024-02-26T13:48:17;8.80;99.90
15143;DHT22;7672;50.834;6.286;2024-02-26T13:50:44;8.80;99.90
15143;DHT22;7672;50.834;6.286;2024-02-26T13:53:13;8.80;99.90
15143;DHT22;7672;50.834;6.286;2024-02-26T13:55:41;8.80;99.90
15143;DHT22;7672;50.834;6.286;2024-02-26T13:58:12;8.80;99.90
15143;DHT22;7672;50.834;6.286;2024-02-26T14:00:40;8.80;99.90
15143;DHT22;7672;50.834;6.286;2024-02-26T14:03:11;8.90;99.90
15143;DHT22;7672;50.834;6.286;2024-02-26T14:05:39;8.90;99.90
15143;DHT22;7672;50.834;6.286;2024-02-26T14:08:11;8.90;99.90
15143;DHT22;7672;50.834;6.286;2024-02-26T14:10:38;9.00;99.90
15143;DHT22;7672;50.834;6.286;2024-02-26T14:13:06;9.40;99.90
15143;DHT22;7672;50.834;6.286;2024-02-26T14:15:34;9.00;99.90
15143;DHT22;7672;50.834;6.286;2024-02-26T14:18:02;9.00;99.90
15143;DHT22;7672;50.834;6.286;2024-02-26T14:20:31;9.00;99.90
15143;DHT22;7672;50.834;6.286;2024-02-26T14:22:58;9.00;99.90
15143;DHT22;7672;50.834;6.286;2024-02-26T14:25:24;9.00;99.90
15143;DHT22;7672;50.834;6.286;2024-02-26T14:27:56;9.10;99.90
15143;DHT22;7672;50.834;6.286;2024-02-26T14:30:25;9.00;99.90
15143;DHT22;7672;50.834;6.286;2024-02-26T14:32:53;9.00;99.90
15143;DHT22;7672;50.834;6.286;2024-02-26T14:35:21;9.00;99.90
15143;DHT22;7672;50.834;6.286;2024-02-26T14:37:48;9.00;99.90
15143;DHT22;7672;50.834;6.286;2024-02-26T14:40:17;9.00;99.90
15143;DHT22;7672;50.834;6.286;2024-02-26T14:42:44;9.00;99.90
15143;DHT22;7672;50.834;6.286;2024-02-26T14:45:11;9.00;99.90
15143;DHT22;7672;50.834;6.286;2024-02-26T14:47:39;9.00;99.90
15143;DHT22;7672;50.834;6.286;2024-02-26T14:50:07;9.00;99.90
15143;DHT22;7672;50.834;6.286;2024-02-26T14:52:34;9.00;99.90
15143;DHT22;7672;50.834;6.286;2024-02-26T14:55:01;9.00;99.90
15143;DHT22;7672;50.834;6.286;2024-02-26T14:57:29;9.00;99.90
15143;DHT22;7672;50.834;6.286;2024-02-26T14:59:56;9.00;99.90
15143;DHT22;7672;50.834;6.286;2024-02-26T15:02:23;9.00;99.90
15143;DHT22;7672;50.834;6.286;2024-02-26T15:04:50;9.00;99.90
15143;DHT22;7672;50.834;6.286;2024-02-26T15:07:17;9.00;99.90
15143;DHT22;7672;50.834;6.286;2024-02-26T15:09:46;9.00;99.90
15143;DHT22;7672;50.834;6.286;2024-02-26T15:12:13;9.00;99.90
15143;DHT22;7672;50.834;6.286;2024-02-26T15:14:42;8.90;99.90
15143;DHT22;7672;50.834;6.286;2024-02-26T15:17:09;9.00;99.90
15143;DHT22;7672;50.834;6.286;2024-02-26T15:19:39;9.00;99.90
15143;DHT22;7672;50.834;6.286;2024-02-26T15:22:06;9.00;99.90
15143;DHT22;7672;50.834;6.286;2024-02-26T15:24:33;9.00;99.90
15143;DHT22;7672;50.834;6.286;2024-02-26T15:27:00;9.00;99.90
15143;DHT22;7672;50.834;6.286;2024-02-26T15:29:27;9.00;99.90
15143;DHT22;7672;50.834;6.286;2024-02-26T15:31:54;9.00;99.90
15143;DHT22;7672;50.834;6.286;2024-02-26T15:34:21;9.00;99.90
15143;DHT22;7672;50.834;6.286;2024-02-26T15:36:49;9.00;99.90
15143;DHT22;7672;50.834;6.286;2024-02-26T15:39:15;9.00;99.90
15143;DHT22;7672;50.834;6.286;2024-02-26T15:41:43;9.00;99.90
15143;DHT22;7672;50.834;6.286;2024-02-26T15:44:10;9.00;99.90
15143;DHT22;7672;50.834;6.286;2024-02-26T15:46:41;9.10;99.90
15143;DHT22;7672;50.834;6.286;2024-02-26T15:49:08;9.00;99.90
15143;DHT22;7672;50.834;6.286;2024-02-26T15:51:41;9.00;99.90
15143;DHT22;7672;50.834;6.286;2024-02-26T15:54:09;9.00;99.90
15143;DHT22;7672;50.834;6.286;2024-02-26T15:56:36;9.00;99.90
15143;DHT22;7672;50.834;6.286;2024-02-26T15:59:05;9.00;99.90
15143;DHT22;7672;50.834;6.286;2024-02-26T16:01:31;9.00;99.90
15143;DHT22;7672;50.834;6.286;2024-02-26T16:03:58;9.00;99.90
15143;DHT22;7672;50.834;6.286;2024-02-26T16:06:32;9.00;99.90
15143;DHT22;7672;50.834;6.286;2024-02-26T16:09:01;9.00;99.90
15143;DHT22;7672;50.834;6.286;2024-02-26T16:11:28;8.90;99.90
15143;DHT22;7672;50.834;6.286;2024-02-26T16:14:12;8.90;99.90
15143;DHT22;7672;50.834;6.286;2024-02-26T16:16:59;8.90;99.90
15143;DHT22;7672;50.834;6.286;2024-02-26T16:19:33;8.90;99.90
15143;DHT22;7672;50.834;6.286;2024-02-26T16:22:01;8.90;99.90
15143;DHT22;7672;50.834;6.286;2024-02-26T16:24:28;8.80;99.90
15143;DHT22;7672;50.834;6.286;2024-02-26T16:26:55;8.80;99.90
15143;DHT22;7672;50.834;6.286;2024-02-26T16:29:22;8.80;99.90
15143;DHT22;7672;50.834;6.286;2024-02-26T16:31:51;8.80;99.90
15143;DHT22;7672;50.834;6.286;2024-02-26T16:34:18;8.70;99.90
15143;DHT22;7672;50.834;6.286;2024-02-26T16:36:45;8.70;99.90
15143;DHT22;7672;50.834;6.286;2024-02-26T16:39:12;8.70;99.90
15143;DHT22;7672;50.834;6.286;2024-02-26T16:41:39;8.70;99.90
15143;DHT22;7672;50.834;6.286;2024-02-26T16:44:06;8.70;99.90
15143;DHT22;7672;50.834;6.286;2024-02-26T16:46:34;8.70;99.90
15143;DHT22;7672;50.834;6.286;2024-02-26T16:49:01;8.70;99.90
15143;DHT22;7672;50.834;6.286;2024-02-26T16:51:37;8.70;99.90
15143;DHT22;7672;50.834;6.286;2024-02-26T16:54:05;8.60;99.90
15143;DHT22;7672;50.834;6.286;2024-02-26T16:56:32;8.60;99.90
15143;DHT22;7672;50.834;6.286;2024-02-26T16:59:00;8.60;99.90
15143;DHT22;7672;50.834;6.286;2024-02-26T17:01:26;8.60;99.90
15143;DHT22;7672;50.834;6.286;2024-02-26T17:03:54;8.60;99.90
15143;DHT22;7672;50.834;6.286;2024-02-26T17:06:21;8.60;99.90
15143;DHT22;7672;50.834;6.286;2024-02-26T17:08:51;8.50;99.90
15143;DHT22;7672;50.834;6.286;2024-02-26T17:11:19;8.50;99.90
15143;DHT22;7672;50.834;6.286;2024-02-26T17:13:47;8.50;99.90
15143;DHT22;7672;50.834;6.286;2024-02-26T17:16:14;8.50;99.90
15143;DHT22;7672;50.834;6.286;2024-02-26T17:18:42;8.50;99.90
15143;DHT22;7672;50.834;6.286;2024-02-26T17:21:09;8.50;99.90
15143;DHT22;7672;50.834;6.286;2024-02-26T17:23:36;8.50;99.90
15143;DHT22;7672;50.834;6.286;2024-02-26T17:26:04;8.40;99.90
15143;DHT22;7672;50.834;6.286;2024-02-26T17:28:33;8.50;99.90
15143;DHT22;7672;50.834;6.286;2024-02-26T17:31:02;8.40;99.90
15143;DHT22;7672;50.834;6.286;2024-02-26T17:33:29;8.40;99.90
15143;DHT22;7672;50.834;6.286;2024-02-26T17:35:56;8.40;99.90
15143;DHT22;7672;50.834;6.286;2024-02-26T17:38:23;8.40;99.90
15143;DHT22;7672;50.834;6.286;2024-02-26T17:40:50;8.40;99.90
15143;DHT22;7672;50.834;6.286;2024-02-26T17:43:17;8.40;99.90